Aérodrome :
LOGIN :

S'inscrire | Disclaimer

   EN    FR    IT 

 










Légende :    VFR   VFR Marginal   IFR   IFR Intensif   IFR Très Intensif
Visi : 
Plafond : 
>= 8 km
>= 3000ft
5 à 8 km
1000 à 3000 ft
1500m à 5 km
500 à 1000 ft
800 à 1500m
200 à 500 ft
< 800m
< 200 ft
Symboles :   Orages  Brouillard  Fortes neiges  Fortes précipitations  Vent > 20 kt
SIGMETs :   Divers  Orages  Givrage  Turbulence  Onde Orograph.  Cendres Volcan.






- Altitude de l'aérodrome : 74 ft
- Code IATA : LRH


LFBH - La Rochelle Ile de Ré

DERNIER METAR :
  • 110600Z AUTO 34010KT 9999 -RA FEW036/// BKN064/// OVC074/// ///TCU 08/07 Q1015 TEMPO 32015G25KT 3000 RA BKN010

METARs EXPIRÉS :
  • 110530Z AUTO 35012KT 9999 RA FEW041/// SCT047/// OVC060/// ///CB 08/07 Q1015 TEMPO 32015G25KT 3000 RA BKN010
  • 110500Z AUTO 35013KT 9000 RA BKN032/// OVC038/// ///TCU 08/07 Q1015 TEMPO 32015G25KT 2000 RA BKN003
  • 110430Z AUTO 35013KT 9999 -RA FEW010/// BKN019/// OVC025/// ///TCU 08/07 Q1014 TEMPO 32015G25KT 2000 RA BKN003
  • 110400Z AUTO 34015KT 9000 RA BKN008/// BKN012/// OVC018/// ///TCU 09/08 Q1014 TEMPO 32015G25KT 2000 RA BKN003
  • 110330Z AUTO 25011KT 160V310 6000 -RA OVC003/// ///TCU 11/10 Q1014 TEMPO 32015G25KT 2000 RA BKN003

TAF AMD TAF LFBH
Valide du 11 à 06h jusqu'au 12 à 06h UTC


110522Z 1106/1206 33015KT 9999 OVC030
PROB40 1106/1108 32015G25KT 3000 RA BKN010
TEMPO 1108/1112 SHRA BKN020TCU
TEMPO 1112/1122 28020G40KT 3000 SHRA BKN020CB
PROB30
TEMPO 1113/1118 TSRA
BECMG 1122/1124 33005KT
PROB40 1202/1206 26015KT RA
ATIS : +33 5 46 00 13 92



MET'MAP, la Météo Aéronautique d'un coup d'oeil ! - Copyright ORBIFLY Décembre 2007 - Disclaimer

ORBIFLY MET'MAP TEAM :

Programmation & Développement : Alexandra Zaïnal
Sur une idée originale de : Baudouin d'Aumeries
Assistance à la programmation : Marc-Olivier Méhu
Soutien technique & logistique : Manuel Goepfert

Contact : metmap@orbifly.com




SOURCES & CREDITS :

   NOAA